createdAt,value
2023-02-05T00:01:56.831Z,60855.09
2023-02-05T00:04:25.424Z,60864.69
2023-02-05T00:06:56.826Z,60861.66
2023-02-05T00:09:28.417Z,60849.63
2023-02-05T00:11:56.889Z,60850.81
2023-02-05T00:14:26.245Z,60851.63
2023-02-05T00:16:55.233Z,60847.91
2023-02-05T00:19:23.609Z,60860.41
2023-02-05T00:21:52.219Z,60878.84
2023-02-05T00:24:20.822Z,60875.09
2023-02-05T00:26:50.720Z,60872.56
2023-02-05T00:29:19.175Z,60870.03
2023-02-05T00:31:49.651Z,60865.75
2023-02-05T00:34:18.315Z,60865.75
2023-02-05T00:36:46.856Z,60867.88
2023-02-05T00:39:16.133Z,60875.63
2023-02-05T00:41:44.636Z,60871.91
2023-02-05T00:44:14.483Z,60863.63
2023-02-05T00:46:42.848Z,60871.91
2023-02-05T00:49:11.370Z,60865.22
2023-02-05T00:51:39.756Z,60868.72
2023-02-05T00:54:08.286Z,60859.25
2023-02-05T00:56:37.386Z,60857.63
2023-02-05T00:59:06.350Z,60841.63
2023-02-05T01:01:39.234Z,60848.44
2023-02-05T01:04:07.741Z,60848.03
2023-02-05T01:06:36.213Z,60874.56
2023-02-05T01:09:05.240Z,60891.78
2023-02-05T01:11:33.829Z,60917.00
2023-02-05T01:14:02.479Z,60942.63
2023-02-05T01:16:31.237Z,60934.47
2023-02-05T01:19:01.350Z,60930.34
2023-02-05T01:21:29.797Z,60894.03
2023-02-05T01:24:00.159Z,60862.31
2023-02-05T01:26:28.607Z,60848.44
2023-02-05T01:28:57.337Z,60834.16
2023-02-05T01:31:28.162Z,60840.97
2023-02-05T01:33:57.069Z,60826.28
2023-02-05T01:36:27.048Z,60826.28
2023-02-05T01:38:55.515Z,60827.75
2023-02-05T01:41:24.123Z,60828.81
2023-02-05T01:44:11.816Z,60832.97
2023-02-05T01:46:42.782Z,60828.41
2023-02-05T01:49:17.678Z,60836.16
2023-02-05T01:51:49.070Z,60838.00
2023-02-05T01:54:19.903Z,60834.16
2023-02-05T01:56:53.490Z,60829.25
2023-02-05T01:59:25.523Z,60826.03
2023-02-05T02:01:55.142Z,60830.97
2023-02-05T02:04:35.935Z,60825.63
2023-02-05T02:07:07.778Z,60836.69
2023-02-05T02:09:39.296Z,60826.16
2023-02-05T02:12:08.619Z,60823.91
2023-02-05T02:14:38.990Z,60829.25
2023-02-05T02:17:09.102Z,60820.84
2023-02-05T02:19:45.526Z,60811.34
2023-02-05T02:22:48.538Z,60817.09
2023-02-05T02:26:01.583Z,60820.72
2023-02-05T02:28:37.189Z,60825.38
2023-02-05T02:31:11.238Z,60820.97
2023-02-05T02:33:49.158Z,60827.22
2023-02-05T02:36:25.411Z,60837.78
2023-02-05T02:39:04.410Z,60836.81
2023-02-05T02:41:44.617Z,60838.84
2023-02-05T02:44:18.212Z,60824.69
2023-02-05T02:46:51.841Z,60819.88
2023-02-05T02:49:27.215Z,60829.78
2023-02-05T02:51:59.124Z,60825.22
2023-02-05T02:54:29.211Z,60819.88
2023-02-05T02:56:59.148Z,60823.91
2023-02-05T02:59:31.779Z,60828.41
2023-02-05T03:02:04.661Z,60831.34
2023-02-05T03:04:38.725Z,60824.16
2023-02-05T03:07:13.678Z,60816.03
2023-02-05T03:09:50.996Z,60822.56
2023-02-05T03:12:21.537Z,60829.91
2023-02-05T03:14:51.897Z,60830.97
2023-02-05T03:17:20.809Z,60823.06
2023-02-05T03:19:59.296Z,60823.06
2023-02-05T03:22:27.930Z,60835.25
2023-02-05T03:24:56.446Z,60844.31
2023-02-05T03:27:26.119Z,60854.97
2023-02-05T03:29:57.053Z,60849.75
2023-02-05T03:32:39.555Z,60845.75
2023-02-05T03:35:26.965Z,60844.44
2023-02-05T03:38:17.368Z,60834.81
2023-02-05T03:40:52.659Z,60830.44
2023-02-05T03:43:34.754Z,60840.81
2023-02-05T03:46:13.189Z,60841.22
2023-02-05T03:49:01.684Z,60856.44
2023-02-05T03:51:38.904Z,60849.09
2023-02-05T03:54:19.053Z,60841.75
2023-02-05T03:56:56.302Z,60848.44
2023-02-05T03:59:27.432Z,60848.97
2023-02-05T04:01:58.160Z,60843.09
2023-02-05T04:04:29.631Z,60837.34
2023-02-05T04:06:58.746Z,60836.69
2023-02-05T04:09:27.404Z,60843.75
2023-02-05T04:11:57.619Z,60844.19
2023-02-05T04:14:26.614Z,60841.22
2023-02-05T04:16:56.396Z,60842.28
2023-02-05T04:19:26.698Z,60840.56
2023-02-05T04:21:58.220Z,60846.03
2023-02-05T04:24:26.930Z,60843.88
2023-02-05T04:26:56.891Z,60845.50
2023-02-05T04:29:25.589Z,60850.56
2023-02-05T04:31:56.221Z,60856.03
2023-02-05T04:34:25.401Z,60842.69
2023-02-05T04:36:54.373Z,60850.16
2023-02-05T04:39:23.938Z,60843.09
2023-02-05T04:41:52.535Z,60836.94
2023-02-05T04:44:21.290Z,60837.34
2023-02-05T04:46:49.717Z,60836.03
2023-02-05T04:49:19.486Z,60832.56
2023-02-05T04:51:48.088Z,60828.00
2023-02-05T04:54:16.876Z,60831.63
2023-02-05T04:56:46.830Z,60834.56
2023-02-05T04:59:15.293Z,60834.16
2023-02-05T05:01:43.849Z,60828.81
2023-02-05T05:04:12.328Z,60832.97
2023-02-05T05:06:42.105Z,60819.47
2023-02-05T05:09:10.590Z,60833.75
2023-02-05T05:11:39.013Z,60843.09
2023-02-05T05:14:07.457Z,60837.78
2023-02-05T05:16:35.859Z,60842.28
2023-02-05T05:19:04.577Z,60851.22
2023-02-05T05:21:32.969Z,60855.50
2023-02-05T05:24:02.841Z,60866.56
2023-02-05T05:26:31.576Z,60860.41
2023-02-05T05:29:00.266Z,60862.44
2023-02-05T05:31:28.833Z,60864.56
2023-02-05T05:33:57.288Z,60858.28
2023-02-05T05:36:25.761Z,60858.28
2023-02-05T05:38:54.186Z,60862.97
2023-02-05T05:41:43.146Z,60863.09
2023-02-05T05:44:12.112Z,60862.31
2023-02-05T05:46:43.071Z,60856.16
2023-02-05T05:49:11.479Z,60862.84
2023-02-05T05:51:39.923Z,60860.16
2023-02-05T05:54:08.414Z,60838.56
2023-02-05T05:56:38.385Z,60845.22
2023-02-05T05:59:07.066Z,60831.09
2023-02-05T06:01:35.494Z,60833.50
2023-02-05T06:04:04.395Z,60832.44
2023-02-05T06:06:33.068Z,60837.78
2023-02-05T06:09:01.551Z,60828.16
2023-02-05T06:11:30.053Z,60821.25
2023-02-05T06:13:59.814Z,60812.31
2023-02-05T06:16:28.340Z,60795.75
2023-02-05T06:18:57.558Z,60786.31
2023-02-05T06:21:26.120Z,60794.31
2023-02-05T06:23:54.572Z,60788.19
2023-02-05T06:26:23.239Z,60791.38
2023-02-05T06:28:51.700Z,60785.50
2023-02-05T06:31:21.567Z,60776.16
2023-02-05T06:33:50.196Z,60780.31
2023-02-05T06:36:18.572Z,60775.50
2023-02-05T06:38:47.083Z,60775.94
2023-02-05T06:41:15.493Z,60774.84
2023-02-05T06:43:43.971Z,60767.41
2023-02-05T06:46:12.495Z,60764.44
2023-02-05T06:48:42.369Z,60749.50
2023-02-05T06:51:10.889Z,60755.13
2023-02-05T06:53:39.354Z,60745.25
2023-02-05T06:56:08.617Z,60749.94
2023-02-05T06:58:37.052Z,60753.53
2023-02-05T07:01:05.859Z,60762.06
2023-02-05T07:03:34.409Z,60758.88
2023-02-05T07:06:08.596Z,60750.59
2023-02-05T07:08:37.223Z,60764.84
2023-02-05T07:11:06.112Z,60760.19
2023-02-05T07:13:34.529Z,60768.59
2023-02-05T07:16:05.560Z,60776.97
2023-02-05T07:18:35.316Z,60784.44
2023-02-05T07:21:10.346Z,60779.34
2023-02-05T07:23:39.013Z,60784.44
2023-02-05T07:26:11.795Z,60764.84
2023-02-05T07:28:40.812Z,60755.38
2023-02-05T07:31:15.236Z,60768.06
2023-02-05T07:33:44.286Z,60779.66
2023-02-05T07:36:17.346Z,60792.03
2023-02-05T07:38:47.276Z,60780.19
2023-02-05T07:41:18.002Z,60763.13
2023-02-05T07:43:46.673Z,60751.00
2023-02-05T07:46:16.523Z,60746.31
2023-02-05T07:48:45.020Z,60756.97
2023-02-05T07:51:19.294Z,60777.63
2023-02-05T07:53:48.372Z,60778.03
2023-02-05T07:56:17.856Z,60790.03
2023-02-05T07:58:46.308Z,60795.75
2023-02-05T08:01:15.094Z,60809.75
2023-02-05T08:03:43.524Z,60812.16
2023-02-05T08:06:18.268Z,60816.03
2023-02-05T08:08:46.743Z,60815.38
2023-02-05T08:11:17.530Z,60814.97
2023-02-05T08:13:47.455Z,60827.34
2023-02-05T08:16:16.979Z,60838.84
2023-02-05T08:18:48.637Z,60836.94
2023-02-05T08:21:19.264Z,60845.22
2023-02-05T08:23:47.744Z,60843.66
2023-02-05T08:26:16.365Z,60846.28
2023-02-05T08:28:46.068Z,60857.63
2023-02-05T08:31:17.641Z,60857.75
2023-02-05T08:33:47.771Z,60850.16
2023-02-05T08:36:16.269Z,60859.25
2023-02-05T08:38:46.080Z,60874.06
2023-02-05T08:41:15.641Z,60874.31
2023-02-05T08:43:46.123Z,60875.88
2023-02-05T08:46:17.690Z,60879.91
2023-02-05T08:48:46.278Z,60878.31
2023-02-05T08:51:16.453Z,60887.63
2023-02-05T08:53:46.591Z,60889.13
2023-02-05T08:56:16.062Z,60881.09
2023-02-05T08:58:44.890Z,60867.88
2023-02-05T09:01:16.106Z,60881.50
2023-02-05T09:03:45.117Z,60865.09
2023-02-05T09:06:17.203Z,60860.94
2023-02-05T09:08:47.126Z,60864.03
2023-02-05T09:11:15.527Z,60874.06
2023-02-05T09:13:43.996Z,60881.50
2023-02-05T09:16:12.719Z,60876.41
2023-02-05T09:18:41.240Z,60890.19
2023-02-05T09:21:11.545Z,60889.25
2023-02-05T09:23:40.107Z,60893.25
2023-02-05T09:26:10.270Z,60900.31
2023-02-05T09:28:38.916Z,60894.31
2023-02-05T09:31:09.238Z,60898.59
2023-02-05T09:33:37.831Z,60897.09
2023-02-05T09:36:11.072Z,60895.91
2023-02-05T09:38:41.595Z,60894.47
2023-02-05T09:41:21.019Z,60892.72
2023-02-05T09:43:56.378Z,60880.16
2023-02-05T09:46:35.448Z,60872.16
2023-02-05T09:49:09.404Z,60892.19
2023-02-05T09:51:42.693Z,60895.78
2023-02-05T09:54:18.393Z,60898.19
2023-02-05T09:56:50.024Z,60899.25
2023-02-05T09:59:23.445Z,60902.88
2023-02-05T10:01:57.900Z,60897.09
2023-02-05T10:04:27.458Z,60895.50
2023-02-05T10:07:28.161Z,60898.19
2023-02-05T10:10:25.680Z,60878.97
2023-02-05T10:13:30.550Z,60881.22
2023-02-05T10:16:28.057Z,60888.59
2023-02-05T10:19:15.240Z,60902.44
2023-02-05T10:22:00.669Z,60891.38
2023-02-05T10:24:49.556Z,60913.53
2023-02-05T10:27:22.927Z,60909.81
2023-02-05T10:30:04.914Z,60897.09
2023-02-05T10:32:47.118Z,60891.53
2023-02-05T10:35:25.947Z,60877.25
2023-02-05T10:37:57.654Z,60895.38
2023-02-05T10:40:33.041Z,60892.19
2023-02-05T10:43:06.601Z,60896.03
2023-02-05T10:45:37.155Z,60901.38
2023-02-05T10:48:27.800Z,60897.78
2023-02-05T10:51:02.061Z,60907.00
2023-02-05T10:53:31.780Z,60901.38
2023-02-05T10:56:03.443Z,60894.97
2023-02-05T10:58:44.915Z,60903.53
2023-02-05T11:01:18.687Z,60903.53
2023-02-05T11:03:57.158Z,60909.53
2023-02-05T11:06:29.044Z,60914.06
2023-02-05T11:08:57.697Z,60913.28
2023-02-05T11:11:29.929Z,60895.63
2023-02-05T11:14:01.677Z,60902.44
2023-02-05T11:16:40.720Z,60911.00
2023-02-05T11:19:21.846Z,60912.06
2023-02-05T11:21:54.416Z,60909.28
2023-02-05T11:24:30.960Z,60915.16
2023-02-05T11:27:30.792Z,60912.06
2023-02-05T11:30:32.630Z,60920.59
2023-02-05T11:33:32.589Z,60918.03
2023-02-05T11:36:03.900Z,60917.00
2023-02-05T11:38:40.015Z,60922.31
2023-02-05T11:41:11.532Z,60932.75
2023-02-05T11:43:47.904Z,60932.88
2023-02-05T11:46:20.387Z,60937.69
2023-02-05T11:48:58.818Z,60935.53
2023-02-05T11:51:43.422Z,60927.13
2023-02-05T11:54:22.059Z,60931.69
2023-02-05T11:57:06.569Z,60925.41
2023-02-05T11:59:36.801Z,60931.28
2023-02-05T12:02:35.264Z,60926.59
2023-02-05T12:05:19.661Z,60927.13
2023-02-05T12:07:53.970Z,60932.88
2023-02-05T12:10:37.868Z,60927.00
2023-02-05T12:13:20.273Z,60930.22
2023-02-05T12:16:02.835Z,60948.25
2023-02-05T12:18:50.796Z,60949.56
2023-02-05T12:21:30.481Z,60948.38
2023-02-05T12:24:18.815Z,60945.97
2023-02-05T12:26:50.357Z,60939.41
2023-02-05T12:29:47.821Z,60944.63
2023-02-05T12:32:29.147Z,60955.84
2023-02-05T12:35:24.142Z,60963.31
2023-02-05T12:38:05.716Z,60965.47
2023-02-05T12:40:50.762Z,60971.88
2023-02-05T12:43:34.746Z,60979.84
2023-02-05T12:46:21.676Z,60981.47
2023-02-05T12:49:17.057Z,60986.69
2023-02-05T12:52:04.827Z,60984.69
2023-02-05T12:54:56.801Z,60985.72
2023-02-05T12:57:38.309Z,60998.16
2023-02-05T13:00:15.462Z,60997.91
2023-02-05T13:02:56.267Z,60995.78
2023-02-05T13:05:32.521Z,60994.72
2023-02-05T13:08:09.144Z,60974.53
2023-02-05T13:10:52.643Z,60964.50
2023-02-05T13:13:28.088Z,60967.69
2023-02-05T13:16:03.414Z,60970.13
2023-02-05T13:18:36.878Z,60965.88
2023-02-05T13:21:27.559Z,60969.31
2023-02-05T13:24:22.303Z,60980.16
2023-02-05T13:27:10.332Z,60972.28
2023-02-05T13:29:51.408Z,60976.00
2023-02-05T13:32:25.446Z,60981.88
2023-02-05T13:34:56.750Z,60973.47
2023-02-05T13:37:56.740Z,60972.41
2023-02-05T13:41:09.626Z,60973.59
2023-02-05T13:44:23.125Z,60960.13
2023-02-05T13:47:22.054Z,60959.88
2023-02-05T13:50:38.246Z,60947.97
2023-02-05T13:53:31.681Z,60957.56
2023-02-05T13:56:30.197Z,60965.88
2023-02-05T13:59:03.234Z,60961.06
2023-02-05T14:01:38.247Z,60970.13
2023-02-05T14:04:18.016Z,60966.13
2023-02-05T14:06:57.363Z,60977.63
2023-02-05T14:09:35.507Z,60973.59
2023-02-05T14:12:08.641Z,60979.22
2023-02-05T14:14:39.798Z,60987.88
2023-02-05T14:17:54.881Z,61003.25
2023-02-05T14:20:47.508Z,60992.28
2023-02-05T14:23:58.840Z,60992.16
2023-02-05T14:26:46.506Z,60990.69
2023-02-05T14:29:42.550Z,60975.72
2023-02-05T14:32:12.392Z,60984.69
2023-02-05T14:34:49.379Z,60996.03
2023-02-05T14:37:37.830Z,60976.97
2023-02-05T14:40:27.766Z,60955.72
2023-02-05T14:43:09.513Z,60938.34
2023-02-05T14:45:46.593Z,60943.03
2023-02-05T14:48:27.949Z,60942.63
2023-02-05T14:51:06.302Z,60954.78
2023-02-05T14:53:37.474Z,60950.91
2023-02-05T14:56:07.519Z,60953.06
2023-02-05T14:58:40.936Z,60945.41
2023-02-05T15:01:44.146Z,60951.97
2023-02-05T15:04:41.903Z,60933.28
2023-02-05T15:07:15.076Z,60929.13
2023-02-05T15:09:49.065Z,60925.94
2023-02-05T15:12:58.666Z,60930.22
2023-02-05T15:15:35.508Z,60944.09
2023-02-05T15:18:12.401Z,60956.25
2023-02-05T15:20:42.078Z,60945.81
2023-02-05T15:23:36.133Z,60945.56
2023-02-05T15:26:08.575Z,60926.19
2023-02-05T15:28:42.267Z,60933.56
2023-02-05T15:31:33.905Z,60912.47
2023-02-05T15:34:29.862Z,60927.94
2023-02-05T15:37:06.369Z,60919.94
2023-02-05T15:39:48.670Z,60921.13
2023-02-05T15:42:21.285Z,60908.31
2023-02-05T15:44:50.087Z,60906.97
2023-02-05T15:47:22.501Z,60909.94
2023-02-05T15:49:55.298Z,60892.44
2023-02-05T15:52:28.279Z,60907.66
2023-02-05T15:55:00.338Z,60914.63
2023-02-05T15:57:32.374Z,60903.94
2023-02-05T16:00:03.383Z,60903.94
2023-02-05T16:02:32.971Z,60892.44
2023-02-05T16:05:16.384Z,60907.25
2023-02-05T16:07:51.941Z,60908.75
2023-02-05T16:10:24.264Z,60903.28
2023-02-05T16:13:00.737Z,60888.59
2023-02-05T16:15:36.544Z,60881.75
2023-02-05T16:18:12.655Z,60874.31
2023-02-05T16:20:49.511Z,60882.59
2023-02-05T16:23:26.340Z,60881.09
2023-02-05T16:25:59.505Z,60881.09
2023-02-05T16:28:37.916Z,60901.78
2023-02-05T16:31:08.966Z,60902.56
2023-02-05T16:33:41.117Z,60897.53
2023-02-05T16:36:19.906Z,60895.63
2023-02-05T16:38:53.169Z,60883.78
2023-02-05T16:41:26.445Z,60891.22
2023-02-05T16:43:57.225Z,60882.59
2023-02-05T16:46:29.706Z,60889.38
2023-02-05T16:49:01.168Z,60902.44
2023-02-05T16:51:39.252Z,60913.00
2023-02-05T16:54:33.637Z,60906.19
2023-02-05T16:57:11.564Z,60902.31
2023-02-05T16:59:51.116Z,60919.13
2023-02-05T17:02:35.532Z,60921.66
2023-02-05T17:05:07.776Z,60921.25
2023-02-05T17:07:38.067Z,60929.56
2023-02-05T17:10:17.397Z,60931.28
2023-02-05T17:12:55.624Z,60925.94
2023-02-05T17:15:42.499Z,60911.94
2023-02-05T17:18:35.119Z,60904.47
2023-02-05T17:21:28.522Z,60889.00
2023-02-05T17:23:59.900Z,60890.84
2023-02-05T17:26:32.956Z,60901.78
2023-02-05T17:29:04.912Z,60900.84
2023-02-05T17:31:37.302Z,60909.69
2023-02-05T17:34:06.960Z,60897.53
2023-02-05T17:36:35.566Z,60900.44
2023-02-05T17:39:05.622Z,60893.25
2023-02-05T17:41:55.682Z,60896.44
2023-02-05T17:44:24.253Z,60902.97
2023-02-05T17:46:54.150Z,60895.50
2023-02-05T17:49:23.588Z,60895.63
2023-02-05T17:51:52.180Z,60909.28
2023-02-05T17:54:25.554Z,60910.34
2023-02-05T17:56:57.597Z,60925.81
2023-02-05T17:59:27.635Z,60911.66
2023-02-05T18:01:56.230Z,60908.19
2023-02-05T18:04:24.802Z,60904.19
2023-02-05T18:06:53.932Z,60899.13
2023-02-05T18:09:23.894Z,60890.19
2023-02-05T18:12:02.438Z,60894.97
2023-02-05T18:14:31.145Z,60903.09
2023-02-05T18:16:59.657Z,60890.31
2023-02-05T18:19:29.451Z,60903.53
2023-02-05T18:21:58.278Z,60894.56
2023-02-05T18:24:29.003Z,60905.00
2023-02-05T18:26:57.821Z,60913.53
2023-02-05T18:29:27.831Z,60907.78
2023-02-05T18:31:56.409Z,60912.47
2023-02-05T18:34:26.619Z,60920.59
2023-02-05T18:36:55.723Z,60917.38
2023-02-05T18:39:28.552Z,60912.47
2023-02-05T18:42:00.427Z,60902.31
2023-02-05T18:44:29.156Z,60903.53
2023-02-05T18:46:57.678Z,60907.78
2023-02-05T18:49:26.405Z,60913.78
2023-02-05T18:51:55.266Z,60906.06
2023-02-05T18:54:23.983Z,60921.00
2023-02-05T18:56:54.651Z,60923.13
2023-02-05T18:59:25.815Z,60914.63
2023-02-05T19:01:54.965Z,60925.94
2023-02-05T19:04:24.937Z,60911.66
2023-02-05T19:06:54.589Z,60903.09
2023-02-05T19:09:25.546Z,60910.59
2023-02-05T19:11:55.423Z,60899.38
2023-02-05T19:14:27.028Z,60899.25
2023-02-05T19:16:55.754Z,60907.38
2023-02-05T19:19:26.791Z,60915.81
2023-02-05T19:22:00.067Z,60917.81
2023-02-05T19:24:29.638Z,60897.78
2023-02-05T19:26:59.178Z,60891.78
2023-02-05T19:29:30.571Z,60892.84
2023-02-05T19:31:58.989Z,60892.97
2023-02-05T19:34:29.004Z,60886.84
2023-02-05T19:36:57.681Z,60884.97
2023-02-05T19:39:26.428Z,60896.03
2023-02-05T19:41:54.926Z,60899.78
2023-02-05T19:44:23.885Z,60878.16
2023-02-05T19:46:53.883Z,60886.44
2023-02-05T19:49:23.862Z,60890.06
2023-02-05T19:51:55.252Z,60884.72
2023-02-05T19:54:24.139Z,60873.09
2023-02-05T19:56:52.876Z,60880.69
2023-02-05T19:59:21.503Z,60878.31
2023-02-05T20:01:50.256Z,60869.91
2023-02-05T20:04:24.242Z,60873.53
2023-02-05T20:06:57.347Z,60875.63
2023-02-05T20:09:27.050Z,60865.50
2023-02-05T20:11:55.915Z,60851.63
2023-02-05T20:14:25.516Z,60838.00
2023-02-05T20:16:54.785Z,60843.09
2023-02-05T20:19:24.767Z,60839.25
2023-02-05T20:21:53.273Z,60835.75
2023-02-05T20:24:25.000Z,60832.56
2023-02-05T20:26:53.816Z,60830.97
2023-02-05T20:29:39.459Z,60843.53
2023-02-05T20:32:08.849Z,60851.63
2023-02-05T20:34:41.004Z,60844.84
2023-02-05T20:37:11.438Z,60837.34
2023-02-05T20:39:42.637Z,60854.31
2023-02-05T20:42:13.484Z,60862.84
2023-02-05T20:44:43.635Z,60854.69
2023-02-05T20:47:15.133Z,60846.97
2023-02-05T20:49:45.057Z,60845.22
2023-02-05T20:52:13.472Z,60835.63
2023-02-05T20:54:42.585Z,60836.28
2023-02-05T20:57:11.170Z,60828.16
2023-02-05T20:59:39.796Z,60827.22
2023-02-05T21:02:08.835Z,60828.41
2023-02-05T21:04:38.161Z,60828.81
2023-02-05T21:07:08.001Z,60822.41
2023-02-05T21:09:36.625Z,60822.41
2023-02-05T21:12:05.802Z,60825.22
2023-02-05T21:14:34.283Z,60828.16
2023-02-05T21:17:03.063Z,60833.75
2023-02-05T21:19:31.597Z,60836.16
2023-02-05T21:22:00.582Z,60836.69
2023-02-05T21:24:30.434Z,60846.28
2023-02-05T21:26:58.919Z,60843.22
2023-02-05T21:29:27.445Z,60845.88
2023-02-05T21:31:56.503Z,60846.53
2023-02-05T21:34:27.813Z,60858.47
2023-02-05T21:36:56.982Z,60849.22
2023-02-05T21:39:25.859Z,60852.28
2023-02-05T21:41:55.971Z,60845.50
2023-02-05T21:44:27.873Z,60850.81
2023-02-05T21:46:56.556Z,60855.91
2023-02-05T21:49:25.632Z,60852.81
2023-02-05T21:51:57.495Z,60863.50
2023-02-05T21:54:26.298Z,60860.16
2023-02-05T21:57:00.174Z,60849.09
2023-02-05T21:59:28.972Z,60842.56
2023-02-05T22:01:57.373Z,60848.56
2023-02-05T22:04:26.118Z,60836.94
2023-02-05T22:06:54.734Z,60843.75
2023-02-05T22:09:23.405Z,60840.97
2023-02-05T22:11:52.201Z,60835.34
2023-02-05T22:14:22.130Z,60845.50
2023-02-05T22:16:50.945Z,60840.69
2023-02-05T22:19:19.364Z,60847.91
2023-02-05T22:21:48.176Z,60850.56
2023-02-05T22:24:18.822Z,60855.09
2023-02-05T22:26:48.641Z,60853.38
2023-02-05T22:29:18.883Z,60845.50
2023-02-05T22:31:51.902Z,60850.81
2023-02-05T22:34:21.426Z,60854.03
2023-02-05T22:36:50.256Z,60862.31
2023-02-05T22:39:18.960Z,60852.94
2023-02-05T22:41:47.477Z,60870.44
2023-02-05T22:44:15.935Z,60869.78
2023-02-05T22:46:45.795Z,60868.72
2023-02-05T22:49:16.282Z,60858.81
2023-02-05T22:51:45.585Z,60866.16
2023-02-05T22:54:15.959Z,60866.69
2023-02-05T22:56:44.527Z,60862.44
2023-02-05T22:59:13.624Z,60860.41
2023-02-05T23:01:42.275Z,60867.09
2023-02-05T23:04:11.380Z,60863.63
2023-02-05T23:06:45.238Z,60862.00
2023-02-05T23:09:17.643Z,60861.91
2023-02-05T23:11:46.511Z,60860.41
2023-02-05T23:14:17.503Z,60869.38
2023-02-05T23:16:48.296Z,60862.13
2023-02-05T23:19:19.795Z,60865.75
2023-02-05T23:21:50.759Z,60863.50
2023-02-05T23:24:21.453Z,60860.81
2023-02-05T23:26:53.521Z,60860.28
2023-02-05T23:29:22.349Z,60861.22
2023-02-05T23:31:50.863Z,60867.88
2023-02-05T23:34:19.394Z,60855.63
2023-02-05T23:36:49.220Z,60843.75
2023-02-05T23:39:17.620Z,60830.97
2023-02-05T23:41:46.123Z,60836.16
2023-02-05T23:44:17.818Z,60824.16
2023-02-05T23:46:48.917Z,60823.91
2023-02-05T23:49:20.992Z,60814.97
2023-02-05T23:51:51.431Z,60815.91
2023-02-05T23:54:20.439Z,60826.16
2023-02-05T23:56:48.928Z,60822.41
2023-02-05T23:59:18.262Z,60812.97
